createdAt,value
2018-02-20T00:02:02.592Z,24.00
2018-02-20T00:04:29.581Z,23.93
2018-02-20T00:06:55.784Z,22.80
2018-02-20T00:09:22.741Z,23.20
2018-02-20T00:11:49.011Z,22.13
2018-02-20T00:14:15.145Z,21.90
2018-02-20T00:16:41.265Z,23.17
2018-02-20T00:19:07.575Z,22.07
2018-02-20T00:21:33.794Z,23.27
2018-02-20T00:23:59.995Z,23.67
2018-02-20T00:26:26.173Z,22.57
2018-02-20T00:28:52.339Z,21.60
2018-02-20T00:31:19.240Z,24.33
2018-02-20T00:33:45.405Z,23.97
2018-02-20T00:36:12.339Z,22.70
2018-02-20T00:38:39.275Z,23.97
2018-02-20T00:41:05.515Z,23.60
2018-02-20T00:43:32.464Z,24.50
2018-02-20T00:45:59.375Z,25.07
2018-02-20T00:48:25.521Z,24.63
2018-02-20T00:50:51.699Z,25.60
2018-02-20T00:53:17.810Z,25.57
2018-02-20T00:55:44.699Z,24.37
2018-02-20T00:58:10.868Z,24.17
2018-02-20T01:00:37.814Z,25.30
2018-02-20T01:03:04.743Z,25.50
2018-02-20T01:05:31.662Z,24.40
2018-02-20T01:07:57.885Z,25.43
2018-02-20T01:10:24.112Z,24.57
2018-02-20T01:12:50.296Z,25.70
2018-02-20T01:15:17.261Z,24.67
2018-02-20T01:17:43.443Z,25.00
2018-02-20T01:20:09.647Z,25.27
2018-02-20T01:22:35.850Z,25.57
2018-02-20T01:25:02.013Z,24.40
2018-02-20T01:27:28.255Z,25.73
2018-02-20T01:29:54.395Z,25.40
2018-02-20T01:32:21.313Z,27.17
2018-02-20T01:34:47.488Z,30.00
2018-02-20T01:37:14.449Z,28.27
2018-02-20T01:39:40.614Z,29.37
2018-02-20T01:42:06.800Z,28.50
2018-02-20T01:44:32.953Z,27.73
2018-02-20T01:46:59.095Z,27.60
2018-02-20T01:49:25.236Z,28.80
2018-02-20T01:51:51.369Z,28.00
2018-02-20T01:54:18.341Z,28.53
2018-02-20T01:56:44.550Z,28.10
2018-02-20T01:59:11.490Z,29.50
2018-02-20T02:01:37.649Z,28.47
2018-02-20T02:04:03.850Z,28.13
2018-02-20T02:06:30.822Z,29.30
2018-02-20T02:08:56.993Z,28.07
2018-02-20T02:11:23.172Z,27.27
2018-02-20T02:13:49.364Z,27.97
2018-02-20T02:16:15.535Z,27.13
2018-02-20T02:18:41.700Z,27.60
2018-02-20T02:21:07.891Z,28.53
2018-02-20T02:23:34.075Z,27.60
2018-02-20T02:26:01.028Z,28.77
2018-02-20T02:28:27.236Z,27.50
2018-02-20T02:30:53.389Z,27.13
2018-02-20T02:33:20.345Z,26.93
2018-02-20T02:35:46.536Z,27.40
2018-02-20T02:38:13.462Z,27.53
2018-02-20T02:40:39.690Z,27.87
2018-02-20T02:43:05.816Z,25.57
2018-02-20T02:45:31.991Z,27.13
2018-02-20T02:47:58.162Z,27.70
2018-02-20T02:50:24.360Z,26.93
2018-02-20T02:52:50.567Z,27.10
2018-02-20T02:55:17.485Z,25.10
2018-02-20T02:57:43.681Z,25.70
2018-02-20T03:00:09.834Z,26.97
2018-02-20T03:02:36.013Z,25.50
2018-02-20T03:05:02.157Z,27.40
2018-02-20T03:07:28.321Z,26.87
2018-02-20T03:09:54.858Z,27.63
2018-02-20T03:12:21.790Z,27.57
2018-02-20T03:14:47.937Z,27.60
2018-02-20T03:17:14.884Z,27.43
2018-02-20T03:19:41.788Z,26.80
2018-02-20T03:22:07.952Z,28.70
2018-02-20T03:24:34.119Z,28.30
2018-02-20T03:27:00.332Z,27.73
2018-02-20T03:29:26.523Z,28.80
2018-02-20T03:31:53.437Z,28.40
2018-02-20T03:34:19.648Z,28.40
2018-02-20T03:36:45.848Z,29.63
2018-02-20T03:39:12.759Z,28.27
2018-02-20T03:41:38.931Z,28.37
2018-02-20T03:44:05.094Z,26.27
2018-02-20T03:46:31.253Z,28.83
2018-02-20T03:48:57.376Z,28.10
2018-02-20T03:51:23.615Z,28.40
2018-02-20T03:53:50.608Z,26.83
2018-02-20T03:56:16.772Z,27.40
2018-02-20T03:58:42.896Z,25.77
2018-02-20T04:01:09.135Z,27.70
2018-02-20T04:03:36.040Z,28.00
2018-02-20T04:06:02.291Z,27.60
2018-02-20T04:08:28.523Z,27.67
2018-02-20T04:10:54.756Z,27.60
2018-02-20T04:13:20.903Z,26.20
2018-02-20T04:15:47.059Z,27.80
2018-02-20T04:18:13.230Z,28.13
2018-02-20T04:20:39.409Z,27.87
2018-02-20T04:23:05.590Z,27.43
2018-02-20T04:25:31.785Z,27.57
2018-02-20T04:27:57.988Z,25.97
2018-02-20T04:30:24.109Z,25.83
2018-02-20T04:32:51.007Z,27.40
2018-02-20T04:35:17.183Z,25.13
2018-02-20T04:37:43.411Z,24.63
2018-02-20T04:40:10.272Z,25.03
2018-02-20T04:42:36.495Z,22.50
2018-02-20T04:45:02.712Z,23.57
2018-02-20T04:47:29.656Z,21.20
2018-02-20T04:49:55.822Z,22.90
2018-02-20T04:52:21.972Z,21.90
2018-02-20T04:54:48.170Z,25.17
2018-02-20T04:57:14.312Z,23.80
2018-02-20T04:59:40.452Z,22.33
2018-02-20T05:02:06.576Z,22.57
2018-02-20T05:04:32.787Z,23.50
2018-02-20T05:06:58.997Z,23.47
2018-02-20T05:09:25.185Z,23.27
2018-02-20T05:11:52.127Z,24.67
2018-02-20T05:14:19.135Z,23.50
2018-02-20T05:16:45.351Z,25.03
2018-02-20T05:19:11.492Z,22.40
2018-02-20T05:21:37.709Z,22.13
2018-02-20T05:24:03.835Z,23.50
2018-02-20T05:26:29.998Z,21.80
2018-02-20T05:28:56.173Z,22.53
2018-02-20T05:31:22.374Z,21.80
2018-02-20T05:33:48.568Z,22.90
2018-02-20T05:36:18.814Z,21.93
2018-02-20T05:38:52.145Z,22.80
2018-02-20T05:41:18.331Z,23.50
2018-02-20T05:43:45.269Z,21.17
2018-02-20T05:46:11.417Z,22.40
2018-02-20T05:48:38.373Z,21.17
2018-02-20T05:51:04.497Z,23.07
2018-02-20T05:53:30.742Z,22.10
2018-02-20T05:55:56.930Z,21.00
2018-02-20T05:58:23.845Z,22.63
2018-02-20T06:00:50.087Z,20.20
2018-02-20T06:03:16.229Z,21.50
2018-02-20T06:05:42.350Z,21.57
2018-02-20T06:08:08.555Z,21.00
2018-02-20T06:10:34.800Z,20.63
2018-02-20T06:13:01.038Z,21.47
2018-02-20T06:15:27.997Z,24.13
2018-02-20T06:17:54.947Z,24.17
2018-02-20T06:20:21.154Z,23.87
2018-02-20T06:22:47.282Z,22.87
2018-02-20T06:25:13.491Z,25.03
2018-02-20T06:27:39.682Z,21.50
2018-02-20T06:30:05.845Z,23.00
2018-02-20T06:32:32.030Z,23.10
2018-02-20T06:34:58.269Z,20.50
2018-02-20T06:37:24.442Z,22.00
2018-02-20T06:39:50.693Z,21.17
2018-02-20T06:42:17.684Z,22.77
2018-02-20T06:44:43.900Z,22.50
2018-02-20T06:47:10.104Z,26.20
2018-02-20T06:49:36.317Z,27.83
2018-02-20T06:52:03.324Z,27.20
2018-02-20T06:54:29.521Z,24.43
2018-02-20T06:56:55.732Z,24.30
2018-02-20T06:59:23.169Z,23.37
2018-02-20T07:01:50.060Z,23.10
2018-02-20T07:04:16.237Z,23.70
2018-02-20T07:06:42.410Z,22.73
2018-02-20T07:09:08.601Z,23.80
2018-02-20T07:11:35.562Z,24.50
2018-02-20T07:14:01.811Z,23.30
2018-02-20T07:16:28.018Z,23.63
2018-02-20T07:18:54.955Z,23.70
2018-02-20T07:21:21.918Z,25.77
2018-02-20T07:23:48.150Z,30.23
2018-02-20T07:26:14.364Z,28.43
2018-02-20T07:28:40.551Z,29.90
2018-02-20T07:31:07.504Z,26.50
2018-02-20T07:33:33.692Z,24.93
2018-02-20T07:35:59.861Z,24.10
2018-02-20T07:38:26.046Z,24.57
2018-02-20T07:40:52.172Z,24.33
2018-02-20T07:43:18.336Z,23.40
2018-02-20T07:45:44.462Z,26.40
2018-02-20T07:48:10.650Z,24.87
2018-02-20T07:50:36.812Z,22.60
2018-02-20T07:53:03.832Z,22.60
2018-02-20T07:55:30.042Z,25.17
2018-02-20T07:57:56.227Z,23.90
2018-02-20T08:00:22.447Z,22.60
2018-02-20T08:02:48.669Z,24.87
2018-02-20T08:05:14.902Z,24.63
2018-02-20T08:07:41.153Z,23.27
2018-02-20T08:10:08.247Z,24.00
2018-02-20T08:12:34.423Z,25.07
2018-02-20T08:15:01.368Z,23.23
2018-02-20T08:17:28.383Z,24.47
2018-02-20T08:19:55.248Z,24.13
2018-02-20T08:22:21.406Z,23.77
2018-02-20T08:24:48.450Z,24.03
2018-02-20T08:27:14.665Z,23.50
2018-02-20T08:29:41.610Z,24.53
2018-02-20T08:32:08.650Z,24.10
2018-02-20T08:34:35.573Z,22.93
2018-02-20T08:37:01.772Z,25.03
2018-02-20T08:39:28.075Z,24.87
2018-02-20T08:41:54.270Z,25.43
2018-02-20T08:44:21.156Z,24.13
2018-02-20T08:46:47.350Z,24.53
2018-02-20T08:49:14.395Z,22.97
2018-02-20T08:51:41.387Z,23.47
2018-02-20T08:54:07.635Z,24.97
2018-02-20T08:56:33.825Z,24.13
2018-02-20T08:59:00.076Z,26.43
2018-02-20T09:01:26.239Z,25.40
2018-02-20T09:03:52.428Z,23.43
2018-02-20T09:06:19.096Z,24.70
2018-02-20T09:08:45.268Z,24.97
2018-02-20T09:11:12.252Z,26.47
2018-02-20T09:13:39.424Z,25.30
2018-02-20T09:16:05.649Z,25.43
2018-02-20T09:18:31.894Z,25.50
2018-02-20T09:20:58.841Z,24.97
2018-02-20T09:23:25.041Z,24.90
2018-02-20T09:25:51.207Z,25.27
2018-02-20T09:28:18.220Z,25.07
2018-02-20T09:30:44.434Z,25.83
2018-02-20T09:33:10.616Z,25.10
2018-02-20T09:35:37.520Z,26.30
2018-02-20T09:38:03.698Z,25.50
2018-02-20T09:40:29.908Z,26.13
2018-02-20T09:42:56.896Z,25.83
2018-02-20T09:45:23.124Z,25.00
2018-02-20T09:47:49.425Z,24.50
2018-02-20T09:50:15.674Z,25.00
2018-02-20T09:52:41.876Z,26.23
2018-02-20T09:55:08.776Z,25.27
2018-02-20T09:57:34.958Z,24.37
2018-02-20T10:00:01.162Z,26.10
2018-02-20T10:02:27.682Z,25.03
2018-02-20T10:04:54.583Z,26.00
2018-02-20T10:07:20.711Z,24.53
2018-02-20T10:09:46.914Z,26.40
2018-02-20T10:12:13.839Z,26.00
2018-02-20T10:14:40.781Z,24.50
2018-02-20T10:17:06.957Z,26.87
2018-02-20T10:19:33.101Z,25.67
2018-02-20T10:21:59.514Z,26.20
2018-02-20T10:24:25.732Z,25.10
2018-02-20T10:26:51.890Z,26.27
2018-02-20T10:29:18.085Z,26.10
2018-02-20T10:31:44.286Z,27.63
2018-02-20T10:34:11.280Z,24.63
2018-02-20T10:36:37.429Z,26.10
2018-02-20T10:39:03.643Z,24.77
2018-02-20T10:41:29.939Z,26.63
2018-02-20T10:43:56.104Z,23.67
2018-02-20T10:46:22.332Z,25.40
2018-02-20T10:48:48.893Z,26.03
2018-02-20T10:51:15.804Z,26.43
2018-02-20T10:53:41.948Z,25.43
2018-02-20T10:56:08.170Z,25.80
2018-02-20T10:58:34.355Z,25.03
2018-02-20T11:01:00.512Z,23.80
2018-02-20T11:03:26.676Z,26.10
2018-02-20T11:05:53.565Z,23.83
2018-02-20T11:08:19.778Z,24.40
2018-02-20T11:10:45.967Z,23.73
2018-02-20T11:13:12.908Z,26.13
2018-02-20T11:15:39.107Z,24.07
2018-02-20T11:18:05.272Z,25.33
2018-02-20T11:20:32.248Z,24.33
2018-02-20T11:22:58.451Z,24.47
2018-02-20T11:25:25.410Z,24.07
2018-02-20T11:27:52.332Z,25.20
2018-02-20T11:30:18.516Z,24.27
2018-02-20T11:32:44.726Z,24.40
2018-02-20T11:35:10.872Z,26.00
2018-02-20T11:37:37.053Z,25.40
2018-02-20T11:40:04.003Z,24.83
2018-02-20T11:42:30.962Z,24.80
2018-02-20T11:44:57.149Z,25.67
2018-02-20T11:47:24.126Z,25.47
2018-02-20T11:49:51.097Z,24.10
2018-02-20T11:52:17.311Z,24.63
2018-02-20T11:54:43.524Z,28.20
2018-02-20T11:57:10.480Z,26.20
2018-02-20T11:59:36.681Z,26.40
2018-02-20T12:02:03.711Z,29.27
2018-02-20T12:04:29.940Z,25.00
2018-02-20T12:06:56.879Z,27.03
2018-02-20T12:09:23.074Z,26.60
2018-02-20T12:11:49.247Z,26.87
2018-02-20T12:14:15.417Z,25.47
2018-02-20T12:16:41.584Z,26.90
2018-02-20T12:19:07.827Z,27.17
2018-02-20T12:21:34.039Z,26.50
2018-02-20T12:24:00.256Z,27.23
2018-02-20T12:26:26.494Z,28.00
2018-02-20T12:28:52.698Z,25.20
2018-02-20T12:31:18.908Z,25.77
2018-02-20T12:33:45.049Z,26.83
2018-02-20T12:36:11.815Z,25.50
2018-02-20T12:38:38.019Z,23.53
2018-02-20T12:41:04.172Z,24.80
2018-02-20T12:43:31.282Z,24.77
2018-02-20T12:45:57.446Z,24.77
2018-02-20T12:48:23.729Z,25.37
2018-02-20T12:50:50.681Z,25.47
2018-02-20T12:53:18.330Z,24.20
2018-02-20T12:55:45.321Z,23.60
2018-02-20T12:58:11.599Z,24.80
2018-02-20T13:00:38.535Z,25.17
2018-02-20T13:03:05.610Z,23.50
2018-02-20T13:05:31.870Z,22.00
2018-02-20T13:07:58.068Z,23.60
2018-02-20T13:10:24.272Z,22.30
2018-02-20T13:12:51.222Z,21.77
2018-02-20T13:15:18.217Z,21.57
2018-02-20T13:17:44.398Z,23.13
2018-02-20T13:20:11.347Z,20.83
2018-02-20T13:22:38.273Z,23.13
2018-02-20T13:25:05.163Z,22.00
2018-02-20T13:27:31.395Z,23.17
2018-02-20T13:29:57.577Z,23.30
2018-02-20T13:32:24.777Z,22.27
2018-02-20T13:34:50.909Z,22.17
2018-02-20T13:37:17.136Z,22.20
2018-02-20T13:39:43.260Z,20.97
2018-02-20T13:42:09.434Z,21.97
2018-02-20T13:44:36.685Z,21.70
2018-02-20T13:47:03.615Z,20.63
2018-02-20T13:49:29.906Z,20.23
2018-02-20T13:51:56.132Z,20.80
2018-02-20T13:54:22.259Z,21.70
2018-02-20T13:56:48.504Z,20.93
2018-02-20T13:59:14.759Z,21.10
2018-02-20T14:01:41.707Z,21.23
2018-02-20T14:04:08.707Z,20.80
2018-02-20T14:06:34.859Z,21.93
2018-02-20T14:09:01.377Z,19.50
2018-02-20T14:11:27.536Z,21.40
2018-02-20T14:13:53.673Z,21.40
2018-02-20T14:16:19.844Z,20.10
2018-02-20T14:18:46.075Z,22.13
2018-02-20T14:21:12.319Z,21.27
2018-02-20T14:23:38.517Z,22.17
2018-02-20T14:26:04.672Z,20.50
2018-02-20T14:28:30.831Z,20.43
2018-02-20T14:30:56.999Z,22.03
2018-02-20T14:33:23.124Z,20.40
2018-02-20T14:35:49.324Z,20.60
2018-02-20T14:38:16.309Z,21.90
2018-02-20T14:40:42.432Z,22.13
2018-02-20T14:43:08.606Z,22.00
2018-02-20T14:45:34.831Z,21.80
2018-02-20T14:48:01.031Z,20.57
2018-02-20T14:50:27.238Z,22.10
2018-02-20T14:52:55.151Z,21.90
2018-02-20T14:55:21.355Z,21.67
2018-02-20T14:57:47.575Z,22.47
2018-02-20T15:00:13.725Z,21.50
2018-02-20T15:02:39.944Z,22.57
2018-02-20T15:05:06.154Z,23.47
2018-02-20T15:07:32.360Z,22.70
2018-02-20T15:09:59.242Z,22.73
2018-02-20T15:12:25.487Z,22.10
2018-02-20T15:14:51.648Z,21.90
2018-02-20T15:17:18.956Z,21.67
2018-02-20T15:19:45.140Z,21.60
2018-02-20T15:22:11.353Z,21.00
2018-02-20T15:24:38.319Z,20.67
2018-02-20T15:27:05.258Z,22.30
2018-02-20T15:29:32.137Z,21.40
2018-02-20T15:31:58.336Z,22.13
2018-02-20T15:34:25.269Z,22.27
2018-02-20T15:36:52.241Z,22.23
2018-02-20T15:39:18.423Z,21.67
2018-02-20T15:41:44.585Z,21.07
2018-02-20T15:44:10.834Z,22.50
2018-02-20T15:46:37.127Z,20.77
2018-02-20T15:49:04.038Z,21.37
2018-02-20T15:51:30.235Z,22.13
2018-02-20T15:53:56.453Z,21.03
2018-02-20T15:56:22.639Z,21.10
2018-02-20T15:58:48.837Z,22.10
2018-02-20T16:01:15.003Z,21.60
2018-02-20T16:03:41.939Z,20.43
2018-02-20T16:06:08.086Z,22.10
2018-02-20T16:08:35.196Z,21.93
2018-02-20T16:11:01.445Z,21.50
2018-02-20T16:13:28.425Z,20.63
2018-02-20T16:15:55.698Z,21.67
2018-02-20T16:18:21.876Z,20.83
2018-02-20T16:20:48.896Z,22.33
2018-02-20T16:23:15.078Z,22.07
2018-02-20T16:25:41.278Z,23.37
2018-02-20T16:28:08.196Z,22.00
2018-02-20T16:30:34.349Z,21.80
2018-02-20T16:33:00.523Z,20.27
2018-02-20T16:35:26.728Z,22.77
2018-02-20T16:37:52.903Z,24.47
2018-02-20T16:40:19.096Z,24.57
2018-02-20T16:42:45.274Z,23.67
2018-02-20T16:45:11.468Z,23.20
2018-02-20T16:47:37.714Z,24.07
2018-02-20T16:50:03.947Z,25.17
2018-02-20T16:52:30.449Z,25.27
2018-02-20T16:54:56.623Z,27.57
2018-02-20T16:57:22.842Z,24.87
2018-02-20T16:59:49.766Z,27.27
2018-02-20T17:02:15.989Z,25.63
2018-02-20T17:04:42.205Z,25.73
2018-02-20T17:07:08.478Z,23.23
2018-02-20T17:09:34.703Z,23.93
2018-02-20T17:12:01.641Z,25.03
2018-02-20T17:14:27.811Z,25.07
2018-02-20T17:16:54.422Z,25.47
2018-02-20T17:19:21.302Z,23.87
2018-02-20T17:21:47.469Z,25.33
2018-02-20T17:24:13.690Z,26.30
2018-02-20T17:26:39.885Z,24.03
2018-02-20T17:29:06.037Z,25.63
2018-02-20T17:31:32.234Z,25.13
2018-02-20T17:33:58.384Z,24.90
2018-02-20T17:36:24.574Z,26.00
2018-02-20T17:38:50.788Z,26.30
2018-02-20T17:41:17.729Z,25.80
2018-02-20T17:43:44.675Z,26.70
2018-02-20T17:46:10.880Z,25.80
2018-02-20T17:48:37.133Z,25.97
2018-02-20T17:51:04.165Z,26.80
2018-02-20T17:53:30.376Z,27.20
2018-02-20T17:55:56.658Z,25.27
2018-02-20T17:58:22.873Z,25.43
2018-02-20T18:00:49.775Z,25.50
2018-02-20T18:03:15.994Z,26.30
2018-02-20T18:05:42.224Z,25.37
2018-02-20T18:08:08.412Z,25.07
2018-02-20T18:10:36.301Z,27.60
2018-02-20T18:13:02.570Z,26.43
2018-02-20T18:15:28.732Z,25.67
2018-02-20T18:17:55.694Z,27.70
2018-02-20T18:20:22.000Z,26.90
2018-02-20T18:22:48.977Z,25.87
2018-02-20T18:25:15.128Z,27.43
2018-02-20T18:27:41.354Z,28.30
2018-02-20T18:30:07.559Z,26.37
2018-02-20T18:32:33.733Z,25.73
2018-02-20T18:34:59.876Z,26.30
2018-02-20T18:37:26.023Z,24.53
2018-02-20T18:39:52.208Z,27.97
2018-02-20T18:42:18.480Z,25.93
2018-02-20T18:44:44.734Z,26.47
2018-02-20T18:47:10.912Z,26.63
2018-02-20T18:49:37.830Z,26.80
2018-02-20T18:52:04.032Z,26.03
2018-02-20T18:54:30.275Z,27.23
2018-02-20T18:56:56.532Z,25.50
2018-02-20T18:59:23.476Z,26.63
2018-02-20T19:01:49.630Z,26.53
2018-02-20T19:04:16.601Z,28.40
2018-02-20T19:06:42.885Z,25.23
2018-02-20T19:09:09.154Z,26.40
2018-02-20T19:11:35.489Z,27.10
2018-02-20T19:14:01.710Z,28.20
2018-02-20T19:16:28.126Z,27.50
2018-02-20T19:18:56.039Z,28.10
2018-02-20T19:21:22.440Z,27.10
2018-02-20T19:23:48.640Z,26.67
2018-02-20T19:26:16.295Z,28.00
2018-02-20T19:28:42.509Z,27.47
2018-02-20T19:31:08.779Z,27.57
2018-02-20T19:33:35.035Z,27.23
2018-02-20T19:36:01.271Z,25.93
2018-02-20T19:38:27.482Z,27.67
2018-02-20T19:40:53.682Z,26.63
2018-02-20T19:43:20.573Z,28.20
2018-02-20T19:45:46.840Z,29.73
2018-02-20T19:48:13.058Z,27.70
2018-02-20T19:50:40.056Z,26.60
2018-02-20T19:53:06.281Z,27.60
2018-02-20T19:55:32.504Z,28.73
2018-02-20T19:57:58.759Z,29.20
2018-02-20T20:00:24.987Z,28.53
2018-02-20T20:02:51.180Z,27.13
2018-02-20T20:05:17.432Z,28.30
2018-02-20T20:07:43.685Z,27.57
2018-02-20T20:10:09.870Z,29.47
2018-02-20T20:12:36.015Z,27.97
2018-02-20T20:15:02.244Z,30.40
2018-02-20T20:17:28.405Z,28.20
2018-02-20T20:19:54.681Z,30.03
2018-02-20T20:22:20.871Z,28.27
2018-02-20T20:24:47.800Z,28.20
2018-02-20T20:27:14.009Z,27.83
2018-02-20T20:29:40.175Z,28.23
2018-02-20T20:32:07.130Z,26.73
2018-02-20T20:34:34.923Z,29.27
2018-02-20T20:37:01.131Z,27.83
2018-02-20T20:39:28.040Z,28.80
2018-02-20T20:41:54.186Z,28.20
2018-02-20T20:44:21.146Z,28.93
2018-02-20T20:46:48.050Z,28.57
2018-02-20T20:49:14.282Z,28.77
2018-02-20T20:51:41.324Z,29.17
2018-02-20T20:54:08.425Z,27.30
2018-02-20T20:56:35.445Z,28.80
2018-02-20T20:59:02.416Z,27.00
2018-02-20T21:01:28.645Z,28.83
2018-02-20T21:03:55.570Z,27.70
2018-02-20T21:06:21.764Z,28.40
2018-02-20T21:08:47.926Z,28.87
2018-02-20T21:11:14.937Z,30.60
2018-02-20T21:13:41.105Z,30.17
2018-02-20T21:16:08.143Z,29.43
2018-02-20T21:18:35.133Z,29.53
2018-02-20T21:21:01.255Z,28.40
2018-02-20T21:23:27.497Z,28.80
2018-02-20T21:25:53.916Z,29.20
2018-02-20T21:28:21.099Z,30.97
2018-02-20T21:30:47.549Z,30.87
2018-02-20T21:33:14.012Z,27.87
2018-02-20T21:35:40.331Z,27.73
2018-02-20T21:38:06.573Z,28.17
2018-02-20T21:40:33.776Z,30.73
2018-02-20T21:43:00.198Z,32.37
2018-02-20T21:45:26.608Z,31.17
2018-02-20T21:47:53.045Z,28.57
2018-02-20T21:50:20.331Z,30.43
2018-02-20T21:52:47.508Z,31.37
2018-02-20T21:55:13.760Z,30.67
2018-02-20T21:57:40.162Z,29.67
2018-02-20T22:00:06.684Z,32.70
2018-02-20T22:02:32.964Z,30.90
2018-02-20T22:04:59.437Z,30.17
2018-02-20T22:07:25.874Z,30.47
2018-02-20T22:09:53.117Z,31.80
2018-02-20T22:12:19.462Z,30.93
2018-02-20T22:14:46.408Z,33.40
2018-02-20T22:17:12.552Z,33.07
2018-02-20T22:19:39.491Z,33.77
2018-02-20T22:22:05.656Z,33.53
2018-02-20T22:24:31.974Z,34.43
2018-02-20T22:26:58.904Z,33.67
2018-02-20T22:29:25.869Z,31.90
2018-02-20T22:31:52.043Z,31.43
2018-02-20T22:34:18.234Z,32.20
2018-02-20T22:36:44.470Z,31.93
2018-02-20T22:39:10.638Z,32.43
2018-02-20T22:41:36.836Z,33.67
2018-02-20T22:44:03.002Z,32.30
2018-02-20T22:46:29.126Z,31.20
2018-02-20T22:48:55.371Z,29.30
2018-02-20T22:51:22.256Z,32.07
2018-02-20T22:53:48.438Z,31.03
2018-02-20T22:56:15.365Z,29.90
2018-02-20T22:58:41.566Z,29.63
2018-02-20T23:01:07.805Z,30.37
2018-02-20T23:03:33.945Z,28.10
2018-02-20T23:06:00.119Z,30.80
2018-02-20T23:08:27.044Z,31.00
2018-02-20T23:10:53.980Z,30.80
2018-02-20T23:13:20.972Z,31.00
2018-02-20T23:15:47.164Z,30.90
2018-02-20T23:18:14.089Z,31.00
2018-02-20T23:20:40.349Z,31.27
2018-02-20T23:23:06.498Z,32.73
2018-02-20T23:25:34.894Z,30.87
2018-02-20T23:28:01.097Z,31.67
2018-02-20T23:30:27.309Z,32.00
2018-02-20T23:32:53.473Z,30.20
2018-02-20T23:35:19.635Z,30.30
2018-02-20T23:37:45.836Z,30.80
2018-02-20T23:40:12.033Z,29.90
2018-02-20T23:42:38.211Z,32.40
2018-02-20T23:45:04.425Z,29.83
2018-02-20T23:47:30.635Z,30.27
2018-02-20T23:49:56.797Z,31.67
2018-02-20T23:52:23.042Z,27.07
2018-02-20T23:54:49.959Z,30.60
2018-02-20T23:57:16.151Z,29.60
2018-02-20T23:59:42.377Z,29.50
